In Rescue
 
Open Full Screen Window  High Contrast Mode
Wind Gusting 19 knots
10
June 22, 2024 8:34 PM EDT
Weather Information
Wind Direction
  230 °
Wind Speed
  10 kt (12 mph)
Wind Gust
  19 kt (22 mph)
Altimeter
29.70 in
Visibility
7 SM
Temperature
21° C
70° F
Dewpoint
19° C
66° F
Humidity
88%
Sky Condition
Overcast @ 4,600 ft
Broken @ 3,600 ft
VFR

METAR KLDM 230034Z AUTO 23010G19KT 7SM BKN036 OVC046 21/19 A2970 RMK AO2 T02120190

FAA Disclaimer: The data displayed is for advisory purposes only and is not to be used for flight planning or operations.